createdAt,value
2022-12-05T04:57:34.365Z,0.60
2022-12-05T04:59:37.090Z,0.50
2022-12-05T05:02:04.061Z,0.60
2022-12-05T05:04:11.472Z,0.70
2022-12-05T05:06:15.000Z,0.80
2022-12-05T05:08:21.092Z,0.80
2022-12-05T05:10:36.252Z,0.80
2022-12-05T05:12:38.980Z,0.80
2022-12-05T05:14:41.642Z,0.80
2022-12-05T05:16:45.882Z,0.80
2022-12-05T05:18:49.962Z,0.80
2022-12-05T05:20:52.498Z,0.90
2022-12-05T05:22:59.520Z,0.90
2022-12-05T05:25:02.202Z,0.90
2022-12-05T05:27:04.981Z,0.90
2022-12-05T05:29:08.232Z,0.90
2022-12-05T05:31:11.049Z,0.90
2022-12-05T05:33:14.263Z,0.90
2022-12-05T05:35:17.191Z,0.90
2022-12-05T05:37:19.681Z,1.00
2022-12-05T05:39:22.389Z,0.90
2022-12-05T05:41:30.338Z,1.00
2022-12-05T05:43:32.935Z,1.00
2022-12-05T05:45:37.220Z,1.00
2022-12-05T05:47:40.182Z,1.00
2022-12-05T05:49:42.621Z,1.00
2022-12-05T05:51:45.434Z,1.00
2022-12-05T05:53:49.250Z,0.90
2022-12-05T05:55:51.774Z,0.90
2022-12-05T05:57:54.311Z,1.00
2022-12-05T05:59:57.332Z,0.90
2022-12-05T06:02:00.199Z,0.90
2022-12-05T06:04:02.981Z,0.90
2022-12-05T06:06:08.803Z,1.00
2022-12-05T06:08:11.354Z,0.90
2022-12-05T06:10:14.380Z,0.90
2022-12-05T06:12:17.452Z,0.80
2022-12-05T06:14:20.171Z,0.90
2022-12-05T06:16:23.339Z,0.80
2022-12-05T06:18:25.923Z,0.90
2022-12-05T06:20:28.865Z,0.80
2022-12-05T06:22:31.583Z,0.90
2022-12-05T06:24:34.321Z,0.90
2022-12-05T06:26:37.502Z,0.80
2022-12-05T06:28:40.971Z,0.80
2022-12-05T06:30:44.133Z,0.80
2022-12-05T06:32:46.871Z,0.80
2022-12-05T06:34:49.495Z,0.90
2022-12-05T06:36:52.592Z,0.90
2022-12-05T06:38:55.042Z,0.90
2022-12-05T06:40:57.684Z,0.90
2022-12-05T06:43:00.839Z,0.80
2022-12-05T06:45:04.832Z,0.80
2022-12-05T06:47:07.321Z,0.80
2022-12-05T06:49:11.401Z,0.80
2022-12-05T06:51:16.831Z,0.90
2022-12-05T06:53:21.231Z,0.80
2022-12-05T06:55:23.831Z,0.80
2022-12-05T06:57:28.503Z,0.80
2022-12-05T06:59:31.202Z,0.80
2022-12-05T07:01:39.658Z,0.80
2022-12-05T07:03:44.863Z,0.80
2022-12-05T07:05:47.553Z,0.80
2022-12-05T07:07:50.160Z,0.80
2022-12-05T07:09:54.362Z,0.80
2022-12-05T07:11:56.972Z,0.80
2022-12-05T07:14:00.242Z,0.80
2022-12-05T07:16:03.066Z,0.80
2022-12-05T07:18:05.572Z,0.80
2022-12-05T07:20:10.738Z,0.80
2022-12-05T07:22:16.081Z,0.80
2022-12-05T07:24:18.841Z,0.80
2022-12-05T07:26:24.203Z,0.80
2022-12-05T07:28:27.392Z,0.80
2022-12-05T07:30:30.140Z,0.80
2022-12-05T07:32:36.572Z,0.80
2022-12-05T07:34:39.531Z,0.80
2022-12-05T07:36:42.045Z,0.90
2022-12-05T07:38:45.564Z,0.90
2022-12-05T07:40:48.171Z,0.80
2022-12-05T07:42:51.480Z,0.80
2022-12-05T07:44:54.091Z,0.80
2022-12-05T07:46:56.963Z,0.80
2022-12-05T07:48:59.672Z,0.90
2022-12-05T07:51:07.235Z,0.90
2022-12-05T07:53:09.754Z,0.90
2022-12-05T07:55:12.450Z,1.00
2022-12-05T07:57:14.948Z,1.00
2022-12-05T07:59:18.351Z,1.00
2022-12-05T08:01:24.078Z,1.00
2022-12-05T08:03:26.820Z,1.00
2022-12-05T08:05:29.304Z,1.00
2022-12-05T08:07:31.948Z,1.00
2022-12-05T08:09:34.561Z,0.90
2022-12-05T08:11:37.251Z,0.90
2022-12-05T08:13:40.063Z,1.00
2022-12-05T08:15:42.741Z,0.90
2022-12-05T08:17:45.229Z,0.90
2022-12-05T08:19:48.539Z,0.90
2022-12-05T08:21:53.592Z,0.90
2022-12-05T08:23:56.852Z,0.90
2022-12-05T08:26:08.954Z,0.90
2022-12-05T08:28:11.633Z,0.90
2022-12-05T08:30:14.182Z,0.90
2022-12-05T08:32:16.823Z,0.90
2022-12-05T08:34:20.911Z,0.90
2022-12-05T08:36:23.749Z,1.00
2022-12-05T08:38:26.381Z,1.00
2022-12-05T08:40:28.950Z,0.90
2022-12-05T08:42:32.192Z,0.90
2022-12-05T08:44:34.923Z,0.90
2022-12-05T08:46:39.635Z,0.90
2022-12-05T08:48:42.392Z,1.00
2022-12-05T08:50:45.192Z,1.00
2022-12-05T08:52:48.103Z,1.00
2022-12-05T08:54:51.508Z,1.00
2022-12-05T08:56:54.390Z,1.10
2022-12-05T08:59:04.558Z,1.10
2022-12-05T09:01:09.628Z,1.00
2022-12-05T09:03:13.009Z,1.10
2022-12-05T09:05:27.641Z,1.00
2022-12-05T09:07:31.588Z,1.00
2022-12-05T09:09:35.312Z,1.00
2022-12-05T09:11:46.964Z,0.90
2022-12-05T09:13:50.701Z,1.00
2022-12-05T09:15:53.317Z,1.00
2022-12-05T09:17:56.063Z,0.90
2022-12-05T09:19:58.736Z,1.00
2022-12-05T09:22:01.540Z,1.00
2022-12-05T09:24:04.221Z,1.10
2022-12-05T09:32:15.490Z,0.50
2022-12-05T10:01:50.996Z,0.20
2022-12-05T10:06:15.901Z,0.90
2022-12-05T10:08:48.171Z,0.90
2022-12-05T10:11:04.251Z,0.90
2022-12-05T10:13:25.461Z,0.90
2022-12-05T10:15:42.782Z,0.90
2022-12-05T10:17:53.449Z,1.00
2022-12-05T10:20:02.160Z,1.00
2022-12-05T10:22:20.224Z,1.00
2022-12-05T10:24:31.077Z,0.90
2022-12-05T10:26:56.949Z,1.00
2022-12-05T10:29:50.492Z,1.00
2022-12-05T10:32:05.661Z,1.00
2022-12-05T10:34:23.411Z,1.00
2022-12-05T10:36:26.979Z,1.00
2022-12-05T10:38:33.591Z,1.00
2022-12-05T10:40:42.450Z,1.00
2022-12-05T10:42:46.051Z,1.00
2022-12-05T10:44:51.012Z,1.10
2022-12-05T10:46:59.335Z,1.00
2022-12-05T10:49:02.702Z,1.00
2022-12-05T10:51:06.405Z,1.00
2022-12-05T10:53:12.995Z,1.10
2022-12-05T10:55:18.572Z,1.10
2022-12-05T10:57:25.080Z,1.10
2022-12-05T10:59:46.741Z,1.10
2022-12-05T11:01:59.806Z,1.10
2022-12-05T11:04:20.432Z,1.10
2022-12-05T11:07:05.224Z,1.10
2022-12-05T11:09:38.002Z,1.00
2022-12-05T11:11:40.250Z,1.00
2022-12-05T11:13:57.151Z,1.10
2022-12-05T11:15:59.903Z,1.10
2022-12-05T11:18:24.591Z,1.10
2022-12-05T11:20:27.470Z,1.10
2022-12-05T11:22:36.980Z,1.10
2022-12-05T11:24:40.353Z,1.00
2022-12-05T11:26:43.132Z,1.00
2022-12-05T11:28:45.861Z,1.00
2022-12-05T11:31:04.457Z,0.90
2022-12-05T11:35:29.157Z,0.90
2022-12-05T11:37:51.761Z,0.90
2022-12-05T11:39:54.255Z,0.90
2022-12-05T11:42:28.030Z,0.90
2022-12-05T11:45:10.002Z,0.90
2022-12-05T11:47:24.998Z,0.90
2022-12-05T11:49:56.374Z,0.90
2022-12-05T11:52:20.541Z,0.90
2022-12-05T11:57:17.110Z,1.00
2022-12-05T12:00:01.764Z,1.00
2022-12-05T12:02:16.941Z,1.10
2022-12-05T12:04:43.373Z,1.00
2022-12-05T12:07:04.591Z,1.00
2022-12-05T12:09:34.383Z,1.00
2022-12-05T12:11:45.752Z,1.10
2022-12-05T12:14:17.970Z,1.00
2022-12-05T12:16:57.541Z,1.10
2022-12-05T12:19:14.481Z,1.10
2022-12-05T12:21:42.071Z,1.10
2022-12-05T12:24:53.490Z,1.10
2022-12-05T12:27:35.112Z,1.00
2022-12-05T12:30:15.792Z,1.00
2022-12-05T12:32:28.301Z,1.00
2022-12-05T12:34:50.545Z,1.10
2022-12-05T12:37:03.623Z,1.10
2022-12-05T12:39:35.958Z,1.00
2022-12-05T12:41:41.511Z,1.00
2022-12-05T12:44:05.938Z,1.00
2022-12-05T12:46:36.106Z,1.00
2022-12-05T12:48:47.430Z,1.00
2022-12-05T12:50:54.743Z,1.00
2022-12-05T12:53:03.096Z,1.00
2022-12-05T12:55:30.459Z,0.90
2022-12-05T12:57:46.482Z,0.90
2022-12-05T13:00:04.542Z,1.00
2022-12-05T13:02:24.009Z,0.90
2022-12-05T13:04:34.640Z,0.90
2022-12-05T13:07:00.309Z,0.90
2022-12-05T13:09:15.240Z,0.90
2022-12-05T13:11:21.582Z,0.90
2022-12-05T13:13:34.210Z,1.00
2022-12-05T13:15:42.101Z,1.00
2022-12-05T13:17:48.982Z,0.90
2022-12-05T13:19:54.122Z,0.90
2022-12-05T13:22:01.551Z,0.90
2022-12-05T13:24:06.060Z,0.90
2022-12-05T13:26:11.912Z,0.90
2022-12-05T13:28:31.511Z,0.90
2022-12-05T13:30:55.102Z,1.00
2022-12-05T13:33:07.301Z,1.00
2022-12-05T13:35:40.702Z,1.00
2022-12-05T13:38:06.992Z,1.00
2022-12-05T13:40:43.761Z,1.00
2022-12-05T13:42:48.184Z,1.00
2022-12-05T13:44:56.071Z,0.90
2022-12-05T13:46:58.481Z,0.90
2022-12-05T13:49:11.610Z,1.00
2022-12-05T13:51:36.604Z,1.00
2022-12-05T18:49:56.053Z,0.70
2022-12-05T18:51:58.980Z,0.60
2022-12-05T18:54:01.921Z,0.70
2022-12-05T18:56:23.731Z,0.80
2022-12-05T18:58:27.062Z,0.90
2022-12-05T19:00:30.081Z,1.00
2022-12-05T19:02:32.644Z,1.10
2022-12-05T19:04:35.401Z,1.10
2022-12-05T19:06:40.562Z,1.20
2022-12-05T19:08:44.881Z,1.20
2022-12-05T19:10:47.391Z,1.30
2022-12-05T19:12:49.961Z,1.30
2022-12-05T19:14:52.455Z,1.30
2022-12-05T19:16:59.957Z,1.30
2022-12-05T19:19:04.933Z,1.20
2022-12-05T19:21:07.772Z,1.30
2022-12-05T19:23:10.444Z,1.20
2022-12-05T19:25:12.991Z,1.20
2022-12-05T19:27:16.041Z,1.30
2022-12-05T19:29:18.639Z,1.20
2022-12-05T19:31:23.906Z,1.30
2022-12-05T19:33:26.631Z,1.30
2022-12-05T19:35:29.510Z,1.30
2022-12-05T19:37:32.082Z,1.30
2022-12-05T19:39:34.634Z,1.30
2022-12-05T19:41:37.565Z,1.30
2022-12-05T19:43:41.153Z,1.30
2022-12-05T19:45:44.011Z,1.30
2022-12-05T19:47:47.034Z,1.30
2022-12-05T19:49:50.060Z,1.30
2022-12-05T19:51:52.903Z,1.30
2022-12-05T19:53:55.552Z,1.30
2022-12-05T19:56:09.732Z,1.30
2022-12-05T19:58:12.061Z,1.20
2022-12-05T20:00:18.032Z,1.30
2022-12-05T20:02:21.366Z,1.20
2022-12-05T20:04:24.063Z,1.30
2022-12-05T20:06:26.931Z,1.30
2022-12-05T20:08:29.494Z,1.30
2022-12-05T20:10:34.092Z,1.30
2022-12-05T20:12:36.553Z,1.30
2022-12-05T20:14:38.853Z,1.40
2022-12-05T20:16:41.597Z,1.30
2022-12-05T20:18:44.324Z,1.30
2022-12-05T20:20:56.330Z,1.30
2022-12-05T20:25:09.712Z,1.30
2022-12-05T20:28:09.431Z,1.30
2022-12-05T20:30:12.101Z,1.20
2022-12-05T20:32:15.152Z,1.10
2022-12-05T20:34:17.741Z,1.20
2022-12-05T20:36:25.769Z,1.20
2022-12-05T20:38:28.780Z,1.20
2022-12-05T20:40:32.160Z,1.30
2022-12-05T20:42:34.691Z,1.30
2022-12-05T20:44:37.574Z,1.30
2022-12-05T20:46:42.950Z,1.30
2022-12-05T20:48:46.696Z,1.30
2022-12-05T20:50:50.090Z,1.30
2022-12-05T20:52:52.782Z,1.30
2022-12-05T20:54:57.760Z,1.20
2022-12-05T20:57:00.821Z,1.20
2022-12-05T20:59:12.820Z,1.30
2022-12-05T21:01:17.241Z,1.30
2022-12-05T21:03:20.043Z,1.30
2022-12-05T21:05:23.612Z,1.20
2022-12-05T21:07:27.430Z,1.20
2022-12-05T21:09:32.181Z,1.20
2022-12-05T21:11:34.730Z,1.20
2022-12-05T21:13:37.820Z,1.30
2022-12-05T21:15:40.940Z,1.20
2022-12-05T21:17:43.633Z,1.20
2022-12-05T21:19:46.425Z,1.20
2022-12-05T21:21:49.895Z,1.20
2022-12-05T21:24:04.196Z,1.20
2022-12-05T21:26:11.752Z,1.20
2022-12-05T21:28:15.411Z,1.10
2022-12-05T21:30:21.642Z,1.10
2022-12-05T21:32:26.932Z,1.10
2022-12-05T21:34:30.291Z,1.20
2022-12-05T21:36:35.772Z,1.20
2022-12-05T21:38:38.744Z,1.20
2022-12-05T21:40:43.830Z,1.10
2022-12-05T21:42:47.271Z,1.20
2022-12-05T21:44:57.439Z,1.10
2022-12-05T21:47:04.811Z,1.20
2022-12-05T21:49:08.170Z,1.20
2022-12-05T21:51:12.880Z,1.20
2022-12-05T21:53:27.702Z,1.20
2022-12-05T21:55:34.660Z,1.20
2022-12-05T21:57:41.493Z,1.20
2022-12-05T21:59:44.632Z,1.20
2022-12-05T22:04:06.782Z,1.30
2022-12-05T22:06:12.292Z,1.30
2022-12-05T22:08:15.186Z,1.20
2022-12-05T22:10:19.541Z,1.20
2022-12-05T22:12:22.471Z,1.20
2022-12-05T22:14:25.484Z,1.20
2022-12-05T22:16:50.202Z,1.20
2022-12-05T22:18:53.151Z,1.20
2022-12-05T22:21:07.932Z,1.20
2022-12-05T22:23:16.614Z,1.20
2022-12-05T22:25:21.909Z,1.20
2022-12-05T22:27:24.604Z,1.20
2022-12-05T22:29:27.602Z,1.20
2022-12-05T22:31:30.330Z,1.20
